Tiempo atmosférico en la estación meteorológica de Cabo Busto, Asturias (63 m.)



Fecha
DESCASC
Temp. máxima en grados centígrados (hora)
DESCASC
Temp. mínima en grados centígrados (hora)
DESCASC
Temp. media en grados centígrados
DESCASC
Racha de viento máxima en m/sg (hora)
DESCASC
Velocidad máxima media en intervalos de 10 minutos(hora)
DESCASC
Precipitaciones diarias en mm
DESCASC
Precipitaciones de 00:00 a 06:00 en mm
DESCASC
Precipitaciones de 06:00 a 12:00 en mm
DESCASC
Precipitaciones de 12:00 a 18:00 en mm
DESCASC
Precipitaciones de 18:00 a 24:00 en mm
DESCASC
25-01-2020 -- (--) -- (--) -- -- (--) -- (--) 0 0 0 0 0
24-01-2020 -- (--) -- (--) -- -- (--) -- (--) 0 0 0 0 0
23-01-2020 -- (--) -- (--) -- -- (--) -- (--) 0 0 0 0 0
22-01-2020 -- (--) -- (--) -- -- (--) -- (--) 14 0 5.8 3.8 4.4
21-01-2020 -- (--) -- (--) -- -- (--) -- (--) 1.6 0.4 0.2 1 0
20-01-2020 -- (--) -- (--) -- -- (--) -- (--) 0.6 0.4 0 0.2 0
19-01-2020 -- (--) -- (--) -- -- (--) -- (--) 5.4 4 1.4 0 0
18-01-2020 -- (--) -- (--) -- -- (--) -- (--) 7.2 0 0 7.2 0
17-01-2020 -- (--) -- (--) -- -- (--) -- (--) 1 0.2 0.8 0 0
16-01-2020 -- (--) -- (--) -- -- (--) -- (--) 3.8 0 0 0 3.8
15-01-2020 18.4 (05:00) 10.2 (00:00) 14.3 -- (--) -- (--) 4.6 0 4.6 0 0
14-01-2020 -- (--) -- (--) -- -- (--) -- (--) -- -- -- 0 0
13-01-2020 -- (--) -- (--) -- -- (--) -- (--) -- -- -- -- --
12-01-2020 -- (--) -- (--) -- -- (--) -- (--) -- -- -- -- --
11-01-2020 -- (--) -- (--) -- -- (--) -- (--) -- -- -- -- --
10-01-2020 -- (--) -- (--) -- -- (--) -- (--) -- -- -- -- --

Gráficas

Temp. máximas Temp. mínimas Temp. medias Precipitaciones Rachas de viento máximas Velocidades máximas media en intervalos de 10 minutos

Datos horarios

Fecha y hora oficial Temperatura (ºC) Velocidad del viento (km/h) Dirección del viento Racha (km/h) Dirección de racha Precipitación (mm) Presión (hPa) Tendencia (hPa) Humedad (%)
2020-01-26 23:00:00 15.2 -- -- -- -- 0 1009.1 -1 47
2020-01-26 22:00:00 15.2 -- -- -- -- 0 1009.6 -1 45
2020-01-26 21:00:00 14.7 -- -- -- -- 0 1009.6 -0.8 48
2020-01-26 20:00:00 14.5 -- -- -- -- 0 1010.1 -0.3 48
2020-01-26 19:00:00 14.6 -- -- -- -- 0 1010.6 0.6 47
2020-01-26 18:00:00 14.6 -- -- -- -- 0 1010.4 0 47
2020-01-26 17:00:00 15.2 -- -- -- -- 0 1010.4 -0.7 44
2020-01-26 16:00:00 15.2 -- -- -- -- 0 1010 -1.8 44
2020-01-26 15:00:00 15.2 -- -- -- -- 0 1010.4 -1.9 45
2020-01-26 14:00:00 15.5 -- -- -- -- 0 1011.1 -1.5 45
2020-01-26 13:00:00 14.7 -- -- -- -- 0 1011.8 -0.7 52
2020-01-26 12:00:00 13.6 -- -- -- -- 0 1012.3 0 53
2020-01-26 11:00:00 11.8 -- -- -- -- 0 1012.6 0.4 63
2020-01-26 10:00:00 8.6 -- -- -- -- 0 1012.5 0.9 72
2020-01-26 09:00:00 5.8 -- -- -- -- 0 1012.3 1 78
2020-01-26 08:00:00 6 -- -- -- -- 0 1012.2 1.1 78
2020-01-26 07:00:00 6 -- -- -- -- 0 1011.6 0.6 78
2020-01-26 06:00:00 6.4 -- -- -- -- 0 1011.3 0.5 77
2020-01-26 05:00:00 6.3 -- -- -- -- 0 1011.1 0.2 80
2020-01-26 04:00:00 6.2 -- -- -- -- 0 1011 0.2 81
2020-01-26 03:00:00 6.8 -- -- -- -- 0 1010.8 0 81
2020-01-26 02:00:00 6.5 -- -- -- -- 0 1010.9 -0.4 83
2020-01-26 01:00:00 6.5 -- -- -- -- 0 1010.8 0 84
2020-01-26 00:00:00 7.1 -- -- -- -- 0 1010.8 0.3 85
2020-01-25 23:00:00 8 -- -- -- -- 0 1011.3 1.1 85
2020-01-25 22:00:00 8.2 -- -- -- -- 0 1010.8 1 85
2020-01-25 21:00:00 8.4 -- -- -- -- 0 1010.5 1.5 85
2020-01-25 20:00:00 9.1 -- -- -- -- 0 1010.2 1.6 83
2020-01-25 19:00:00 10.2 -- -- -- -- 0 1009.8 1.3 80
2020-01-25 18:00:00 11 -- -- -- -- 0 1009 0.4 75
2020-01-25 17:00:00 11.5 -- -- -- -- 0 1008.6 -0.5 74
2020-01-25 16:00:00 11.5 -- -- -- -- 0 1008.5 -1.2 73
2020-01-25 15:00:00 11.8 -- -- -- -- 0 1008.6 -1.6 72
2020-01-25 14:00:00 12.3 -- -- -- -- 0 1009.1 -0.9 72
2020-01-25 13:00:00 12 -- -- -- -- 0 1009.7 0 75
2020-01-25 12:00:00 11.5 -- -- -- -- 0 1010.2 0.9 77
2020-01-25 11:00:00 9.6 -- -- -- -- 0 1010 0.8 79
2020-01-25 10:00:00 8 -- -- -- -- 0 1009.7 0.8 81
2020-01-25 09:00:00 7.9 -- -- -- -- 0 1009.3 0.3 81
2020-01-25 08:00:00 7.7 -- -- -- -- 0 1009.2 0.1 82
2020-01-25 07:00:00 7.5 -- -- -- -- 0 1008.9 -0.5 82
2020-01-25 06:00:00 7.3 -- -- -- -- 0 1009 -0.6 83
2020-01-25 05:00:00 6.9 -- -- -- -- 0 1009.1 -0.6 83
2020-01-25 04:00:00 6.8 -- -- -- -- 0 1009.4 -0.6 82
2020-01-25 03:00:00 7.3 -- -- -- -- 0 1009.6 -0.8 81
2020-01-25 02:00:00 7.7 -- -- -- -- 0 1009.7 -1 81
2020-01-25 01:00:00 8.4 -- -- -- -- 0 1010 -1.1 80
2020-01-25 00:00:00 8.6 -- -- -- -- 0 1010.4 -0.9 80
2020-01-24 23:00:00 8.8 -- -- -- -- 0 1010.7 -0.5 80
2020-01-24 22:00:00 9.3 -- -- -- -- 0 1011.1 0.2 81
2020-01-24 21:00:00 9.9 -- -- -- -- 0 1011.3 0.8 79
2020-01-24 20:00:00 10.6 -- -- -- -- 0 1011.2 0.8 79
2020-01-24 19:00:00 11 -- -- -- -- 0 1010.9 0.6 78
2020-01-24 18:00:00 11.7 -- -- -- -- 0 1010.5 0 75
2020-01-24 17:00:00 12.1 -- -- -- -- 0 1010.4 -0.5 72
2020-01-24 16:00:00 12.9 -- -- -- -- 0 1010.3 -1.3 69
2020-01-24 15:00:00 12.9 -- -- -- -- 0 1010.5 -1.6 64
2020-01-24 14:00:00 11.9 -- -- -- -- 0 1010.9 -1.1 67
2020-01-24 13:00:00 11.3 -- -- -- -- 0 1011.6 0 70
2020-01-24 12:00:00 9.7 -- -- -- -- 0 1012.1 1.1 73
2020-01-24 11:00:00 8.3 -- -- -- -- 0 1012 1.2 75
2020-01-24 10:00:00 7 -- -- -- -- 0 1011.6 1 77
2020-01-24 09:00:00 6 -- -- -- -- 0 1011 0.4 80
2020-01-24 08:00:00 5.9 -- -- -- -- 0 1010.8 0.3 81
2020-01-24 07:00:00 6 -- -- -- -- 0 1010.6 -0.1 82
2020-01-24 06:00:00 6.1 -- -- -- -- 0 1010.6 -0.2 83
2020-01-24 05:00:00 6 -- -- -- -- 0 1010.5 -0.4 84
2020-01-24 04:00:00 6.1 -- -- -- -- 0 1010.7 -0.2 84
2020-01-24 03:00:00 6.2 -- -- -- -- 0 1010.8 0.1 84
2020-01-24 02:00:00 6.8 -- -- -- -- 0 1010.9 0.5 84
2020-01-24 01:00:00 6.9 -- -- -- -- 0 1010.9 0.4 83
2020-01-24 00:00:00 7.2 -- -- -- -- 0 1010.7 0.5 84
2020-01-23 23:00:00 7.2 -- -- -- -- 0 1010.4 0.6 83
2020-01-23 22:00:00 8.7 -- -- -- -- 0 1010.5 0.8 84
2020-01-23 21:00:00 8.1 -- -- -- -- 0 1010.2 0.7 83
2020-01-23 20:00:00 8.5 -- -- -- -- 0 1009.8 0.5 82
2020-01-23 19:00:00 9 -- -- -- -- 0 1009.7 0.1 80
2020-01-23 18:00:00 10.1 -- -- -- -- 0 1009.5 -0.3 78
2020-01-23 17:00:00 10.7 -- -- -- -- 0 1009.3 -1.6 75
2020-01-23 16:00:00 11 -- -- -- -- 0 1009.6 -1.7 70
2020-01-23 15:00:00 11 -- -- -- -- 0 1009.8 -1.7 72
2020-01-23 14:00:00 10.3 -- -- -- -- 0 1010.9 -0.4 75
2020-01-23 13:00:00 10 -- -- -- -- 0 1011.3 0.2 78
2020-01-23 12:00:00 8.9 -- -- -- -- 0 1011.5 0.7 78
2020-01-23 11:00:00 7.1 -- -- -- -- 0 1011.3 0.9 81
2020-01-23 10:00:00 5.2 -- -- -- -- 0 1011.1 0.9 83
2020-01-23 09:00:00 4.5 -- -- -- -- 0 1010.8 0.3 84
2020-01-23 08:00:00 5.3 -- -- -- -- 0 1010.4 -0.8 82
2020-01-23 07:00:00 5.7 -- -- -- -- 0 1010.2 -1.4 83
2020-01-23 06:00:00 6 -- -- -- -- 0 1010.5 -1.4 84
2020-01-23 05:00:00 5.8 -- -- -- -- 0 1011.2 -1 85
2020-01-23 04:00:00 6.1 -- -- -- -- 0 1011.6 -0.7 86
2020-01-23 03:00:00 6.1 -- -- -- -- 0 1011.9 -0.6 87
2020-01-23 02:00:00 6.6 -- -- -- -- 0 1012.2 -0.1 87
2020-01-23 01:00:00 7 -- -- -- -- 0 1012.3 -0.2 87
2020-01-23 00:00:00 7.5 -- -- -- -- 0 1012.5 -0.3 87
2020-01-22 23:00:00 9 -- -- -- -- 0 1012.3 -0.5 87
2020-01-22 22:00:00 9.5 -- -- -- -- 0 1012.5 -0.8 88
2020-01-22 21:00:00 9.4 -- -- -- -- 0.6 1012.8 -0.6 87
2020-01-22 20:00:00 9.2 -- -- -- -- 0.6 1012.8 -1 87
2020-01-22 19:00:00 9.3 -- -- -- -- 3.2 1013.3 -1 87
2020-01-22 18:00:00 9.7 -- -- -- -- 0.8 1013.4 -1.5 86
2020-01-22 17:00:00 9.8 -- -- -- -- 0.8 1013.8 -2 85
2020-01-22 16:00:00 10.2 -- -- -- -- 0.2 1014.3 -2.2 84
2020-01-22 15:00:00 10.3 -- -- -- -- 0.6 1014.9 -1.9 85
2020-01-22 14:00:00 10.2 -- -- -- -- 1 1015.8 -1 84
2020-01-22 13:00:00 10.4 -- -- -- -- 0.4 1016.5 -0.5 83
2020-01-22 12:00:00 10.4 -- -- -- -- 0.6 1016.8 0 83
2020-01-22 11:00:00 10.4 -- -- -- -- 0.2 1016.8 0.7 84
2020-01-22 10:00:00 10.2 -- -- -- -- 3.2 1017 0.2 85
2020-01-22 09:00:00 10.6 -- -- -- -- 1.6 1016.8 -0.5 83
2020-01-22 08:00:00 11.6 -- -- -- -- 0 1016.1 -1.7 83
2020-01-22 07:00:00 10.5 -- -- -- -- 0.2 1016.8 -1.5 83
2020-01-22 06:00:00 10.4 -- -- -- -- 0 1017.3 -1.7 84
2020-01-22 05:00:00 10.1 -- -- -- -- 0 1017.8 -1.9 84
2020-01-22 04:00:00 9.9 -- -- -- -- 0 1018.3 -2.1 84
2020-01-22 03:00:00 9.3 -- -- -- -- 0 1019 -1.8 82
2020-01-22 02:00:00 9.3 -- -- -- -- 0 1019.7 -1.1 81
2020-01-22 01:00:00 9.4 -- -- -- -- 0 1020.4 -0.3 78
2020-01-22 00:00:00 9.2 -- -- -- -- 0 1020.8 -0.2 76
2020-01-21 23:00:00 9.1 -- -- -- -- 0 1020.8 0 73
2020-01-21 22:00:00 8.8 -- -- -- -- 0 1020.7 0 74
2020-01-21 21:00:00 8.9 -- -- -- -- 0 1021 0.2 71
2020-01-21 20:00:00 9.2 -- -- -- -- 0 1020.8 0.1 72
2020-01-21 19:00:00 8.9 -- -- -- -- 0 1020.7 -0.1 71
2020-01-21 18:00:00 8.3 -- -- -- -- 0.2 1020.8 -0.7 78
2020-01-21 17:00:00 8.3 -- -- -- -- 0.6 1020.7 -1.1 81
2020-01-21 16:00:00 9 -- -- -- -- 0.2 1020.8 -1.6 77
2020-01-21 15:00:00 8.6 -- -- -- -- 0 1021.5 -2 77
2020-01-21 14:00:00 9.6 -- -- -- -- 0 1021.8 -2.3 69
2020-01-21 13:00:00 9.7 -- -- -- -- 0 1022.4 -1.6 65
2020-01-21 12:00:00 9.3 -- -- -- -- 0 1023.5 -0.6 68
2020-01-21 11:00:00 8.7 -- -- -- -- 0 1024.1 -0.3 71
2020-01-21 10:00:00 8.6 -- -- -- -- 0 1024 -0.7 71
2020-01-21 09:00:00 8.3 -- -- -- -- 0 1024.1 -0.6 74
2020-01-21 08:00:00 7.9 -- -- -- -- 0 1024.4 -0.5 77
2020-01-21 07:00:00 7.9 -- -- -- -- 0.2 1024.7 -0.6 76
2020-01-21 06:00:00 7.8 -- -- -- -- 0.2 1024.7 -1 77
2020-01-21 05:00:00 7.6 -- -- -- -- 0 1024.9 -1.2 76
2020-01-21 04:00:00 7.9 -- -- -- -- 0 1025.3 -1.4 71
2020-01-21 03:00:00 8.1 -- -- -- -- 0.2 1025.7 -0.9 70
2020-01-21 02:00:00 8.3 -- -- -- -- 0 1026.1 -0.8 67
2020-01-21 01:00:00 7.6 -- -- -- -- 0 1026.7 -0.3 69
2020-01-21 00:00:00 8.1 -- -- -- -- 0 1026.6 -0.6 62
2020-01-20 23:00:00 8.3 -- -- -- -- 0 1026.9 -0.3 60
2020-01-20 22:00:00 8.3 -- -- -- -- 0 1027 0.2 58
2020-01-20 21:00:00 8.3 -- -- -- -- 0 1027.2 1 57
2020-01-20 20:00:00 8.2 -- -- -- -- 0 1027.2 1.4 56
2020-01-20 19:00:00 8.2 -- -- -- -- 0 1026.8 0.7 56
2020-01-20 18:00:00 8.5 -- -- -- -- 0 1026.2 -0.1 55
2020-01-20 17:00:00 8.9 -- -- -- -- 0 1025.8 -0.8 53
2020-01-20 16:00:00 7.9 -- -- -- -- 0 1026.1 -2 66
2020-01-20 15:00:00 9 -- -- -- -- 0.2 1026.3 -2.6 66
2020-01-20 14:00:00 9.4 -- -- -- -- 0 1026.6 -2 56
2020-01-20 13:00:00 8.8 -- -- -- -- 0 1028.1 0.4 66
2020-01-20 12:00:00 8.4 -- -- -- -- 0 1028.9 1 66
2020-01-20 11:00:00 8.3 -- -- -- -- 0 1028.6 1.4 64
2020-01-20 10:00:00 9 -- -- -- -- 0 1027.7 1 60
2020-01-20 09:00:00 8.7 -- -- -- -- 0 1027.9 0.8 61
2020-01-20 08:00:00 8.6 -- -- -- -- 0 1027.2 -0.4 62
2020-01-20 07:00:00 8.9 -- -- -- -- 0 1026.7 -2.1 57
2020-01-20 06:00:00 8.9 -- -- -- -- 0 1027.1 -1.2 57
2020-01-20 05:00:00 8.5 -- -- -- -- 0 1027.6 -1.5 64
2020-01-20 04:00:00 8.1 -- -- -- -- 0.2 1028.8 -1.1 70
2020-01-20 03:00:00 9.2 -- -- -- -- 0 1028.3 -1.6 67
2020-01-20 02:00:00 9.4 -- -- -- -- 0.2 1029.1 -0.7 63
2020-01-20 01:00:00 9.5 -- -- -- -- 0 1029.9 0.2 60
2020-01-20 00:00:00 9.5 -- -- -- -- 0 1029.9 0.2 62
2020-01-19 23:00:00 9.9 -- -- -- -- 0 1029.8 0.1 63
2020-01-19 22:00:00 9.9 -- -- -- -- 0 1029.7 0.5 62
2020-01-19 21:00:00 9.9 -- -- -- -- 0 1029.7 0.7 59
2020-01-19 20:00:00 9.7 -- -- -- -- 0 1029.7 1 58
2020-01-19 19:00:00 9.8 -- -- -- -- 0 1029.2 0.7 60
2020-01-19 18:00:00 9.9 -- -- -- -- 0 1029 0.3 59
2020-01-19 17:00:00 10.3 -- -- -- -- 0 1028.7 -0.2 59
2020-01-19 16:00:00 10.5 -- -- -- -- 0 1028.5 -0.9 59
2020-01-19 15:00:00 10.8 -- -- -- -- 0 1028.7 -0.9 57
2020-01-19 14:00:00 10.9 -- -- -- -- 0 1028.9 -0.2 63
2020-01-19 13:00:00 10.9 -- -- -- -- 0 1029.4 1.4 63
2020-01-19 12:00:00 10.7 -- -- -- -- 0 1029.6 2.8 63
2020-01-19 11:00:00 9.7 -- -- -- -- 0 1029.1 3.7 68
2020-01-19 10:00:00 9.6 -- -- -- -- 1.2 1028 4.1 69
2020-01-19 09:00:00 10.6 -- -- -- -- 0 1026.8 4.2 63
2020-01-19 08:00:00 10.4 -- -- -- -- 0 1025.4 3.5 64
2020-01-19 07:00:00 10.5 -- -- -- -- 0.2 1023.9 3.6 65
2020-01-19 06:00:00 10.6 -- -- -- -- 1 1022.6 3.2 71
2020-01-19 05:00:00 10.4 -- -- -- -- 0 1021.9 4.6 74
2020-01-19 04:00:00 10.4 -- -- -- -- 0.2 1020.3 4.1 79
2020-01-19 03:00:00 10.6 -- -- -- -- 0 1019.4 4.8 81
2020-01-19 02:00:00 10.8 -- -- -- -- 2.8 1017.3 3.9 83
2020-01-19 01:00:00 10.8 -- -- -- -- 0 1016.2 3 78
2020-01-19 00:00:00 10.4 -- -- -- -- 0 1014.6 1.8 79
2020-01-18 23:00:00 10.2 -- -- -- -- 0 1013.4 1.2 79
2020-01-18 22:00:00 10.4 -- -- -- -- 0 1013.2 1.7 74
2020-01-18 21:00:00 10.9 -- -- -- -- 0 1012.8 1.3 68
2020-01-18 20:00:00 10.7 -- -- -- -- 0 1012.2 1.1 72
2020-01-18 19:00:00 10.6 -- -- -- -- 0 1011.5 1.3 71
2020-01-18 18:00:00 9.5 -- -- -- -- 1.2 1011.5 3 80
2020-01-18 17:00:00 12.3 -- -- -- -- 0 1011.1 1.6 69
2020-01-18 16:00:00 12.2 -- -- -- -- 0 1010.2 1.5 69
2020-01-18 15:00:00 11.4 -- -- -- -- 1.4 1008.5 -1.4 80
2020-01-18 14:00:00 11.1 -- -- -- -- 4.4 1009.5 -1.5 80
2020-01-18 13:00:00 14.3 -- -- -- -- 0.2 1008.7 -2.6 73
2020-01-18 12:00:00 11.8 -- -- -- -- 0 1009.9 -2.2 67
2020-01-18 11:00:00 10.6 -- -- -- -- 0 1011 -2.6 66
2020-01-18 10:00:00 10.8 -- -- -- -- 0 1011.3 -3.4 62
2020-01-18 09:00:00 9.4 -- -- -- -- 0 1012.1 -3.5 61
2020-01-18 08:00:00 9 -- -- -- -- 0 1013.6 -3.7 63
2020-01-18 07:00:00 9.5 -- -- -- -- 0 1014.7 -3.4 58
2020-01-18 06:00:00 9.3 -- -- -- -- 0 1015.6 -3.2 60
2020-01-18 05:00:00 9.3 -- -- -- -- 0 1017.3 -2.6 60
2020-01-18 04:00:00 8.9 -- -- -- -- 0 1018.1 -3 63
2020-01-18 03:00:00 8.9 -- -- -- -- 0 1018.8 -2.8 63
2020-01-18 02:00:00 8.7 -- -- -- -- 0 1019.9 -2 64
2020-01-18 01:00:00 9 -- -- -- -- 0 1021.1 -1.8 64
2020-01-18 00:00:00 8.5 -- -- -- -- 0 1021.6 -1.5 68
2020-01-17 23:00:00 8.7 -- -- -- -- 0 1021.9 -1.7 69
2020-01-17 22:00:00 8.8 -- -- -- -- 0 1022.9 -0.4 69
2020-01-17 21:00:00 8.3 -- -- -- -- 0 1023.1 -0.1 73
2020-01-17 20:00:00 9 -- -- -- -- 0 1023.6 0.6 73
2020-01-17 19:00:00 9.6 -- -- -- -- 0 1023.3 0.8 71
2020-01-17 18:00:00 10.7 -- -- -- -- 0 1023.2 1 70
2020-01-17 17:00:00 11 -- -- -- -- 0 1023 0.5 68
2020-01-17 16:00:00 11.7 -- -- -- -- 0 1022.5 0 65
2020-01-17 15:00:00 12.1 -- -- -- -- 0 1022.2 -0.5 58
2020-01-17 14:00:00 11.8 -- -- -- -- 0 1022.5 0.7 62
2020-01-17 13:00:00 11.5 -- -- -- -- 0 1022.5 2 62
2020-01-17 12:00:00 10.7 -- -- -- -- 0 1022.7 3.4 66
2020-01-17 11:00:00 9.1 -- -- -- -- 0.6 1021.8 3.6 74
2020-01-17 10:00:00 10.5 -- -- -- -- 0 1020.5 3.7 65
2020-01-17 09:00:00 9.4 -- -- -- -- 0 1019.3 3.1 69
2020-01-17 08:00:00 9.3 -- -- -- -- 0.2 1018.2 3 74
2020-01-17 07:00:00 10.9 -- -- -- -- 0 1016.8 2.6 64
2020-01-17 06:00:00 10.9 -- -- -- -- 0 1016.2 1.9 69
2020-01-17 05:00:00 11.3 -- -- -- -- 0 1015.2 2.2 64
2020-01-17 04:00:00 11.4 -- -- -- -- 0 1014.2 1.6 62
2020-01-17 03:00:00 11 -- -- -- -- 0.2 1014.3 2.6 68
2020-01-17 02:00:00 10.7 -- -- -- -- 0 1013 2 74
2020-01-17 01:00:00 12.7 -- -- -- -- 0 1012.6 2.5 63
2020-01-17 00:00:00 12.9 -- -- -- -- 0 1011.7 2.6 61
2020-01-16 23:00:00 12.7 -- -- -- -- 0 1011 1.6 66
2020-01-16 22:00:00 12.4 -- -- -- -- 0 1010.1 1.3 70
2020-01-16 21:00:00 12 -- -- -- -- 0 1009.1 2 66
2020-01-16 20:00:00 11 -- -- -- -- 2 1009.4 3.3 76
2020-01-16 19:00:00 11.4 -- -- -- -- 1.8 1008.8 3.6 81
2020-01-16 18:00:00 13.8 -- -- -- -- 0 1007.1 1.7 75
2020-01-16 17:00:00 13.7 -- -- -- -- 0 1006.1 0 74
2020-01-16 16:00:00 19 -- -- -- -- 0 1005.2 -1.3 40
2020-01-16 15:00:00 20 -- -- -- -- 0 1005.4 -2.1 36
2020-01-16 14:00:00 20.6 -- -- -- -- 0 1006.1 -1.8 37
2020-01-16 13:00:00 20.6 -- -- -- -- 0 1006.5 -1.4 38
2020-01-16 12:00:00 20.1 -- -- -- -- 0 1007.5 0.1 38
2020-01-16 11:00:00 20.3 -- -- -- -- 0 1007.9 0.7 34
2020-01-16 10:00:00 18.7 -- -- -- -- 0 1007.9 0.4 42
2020-01-16 09:00:00 18.2 -- -- -- -- 0 1007.4 -0.2 45
2020-01-16 08:00:00 18 -- -- -- -- 0 1007.2 -0.7 47
2020-01-16 07:00:00 18.5 -- -- -- -- 0 1007.5 -0.8 43
2020-01-16 06:00:00 18 -- -- -- -- 0 1007.6 -1.7 43
2020-01-16 05:00:00 17.7 -- -- -- -- 0 1007.9 -1.7 42
2020-01-16 04:00:00 16.1 -- -- -- -- 0 1008.3 -1.7 50
2020-01-16 03:00:00 11.1 -- -- -- -- 0 1009.3 -1 75
2020-01-16 02:00:00 9.2 -- -- -- -- 0 1009.6 -1 76
2020-01-16 01:00:00 10.8 -- -- -- -- 0 1010 -1.2 69
2020-01-16 00:00:00 10.7 -- -- -- -- 0 1010.3 -1.7 74
2020-01-15 23:00:00 10.5 -- -- -- -- 0 1010.6 -1.6 73
2020-01-15 22:00:00 10.6 -- -- -- -- 0 1011.2 -1.3 77
2020-01-15 21:00:00 10.5 -- -- -- -- 0 1012 -0.4 78
2020-01-15 20:00:00 11 -- -- -- -- 0 1012.2 0.3 78
2020-01-15 19:00:00 11.5 -- -- -- -- 0 1012.5 0.7 77
2020-01-15 18:00:00 11.9 -- -- -- -- 0 1012.4 1.3 73
2020-01-15 17:00:00 12.7 -- -- -- -- 0 1011.9 1 70
2020-01-15 16:00:00 13.3 -- -- -- -- 0 1011.8 0.7 70
2020-01-15 15:00:00 12.8 -- -- -- -- 0 1011.1 -0.1 72
2020-01-15 14:00:00 13.4 -- -- -- -- 0 1010.9 1 78
2020-01-15 13:00:00 12.5 -- -- -- -- 0 1011.1 2.5 82